首页
METAR-TAF:

METAR-TAF

机场 :

Craig, 科羅拉多州, 美国

纬度: 40-29-36N, 经度: 107-31-25W, 海拔: 1888米

当前天气观测

该预报发布于37分钟前的23:53 UTC
风速4节,风向南转西南
温度 24°C
湿度 41%
气压 1017 hPa
能見度: 16.1公里
天空无云

METAR: KCAG 252353Z AUTO 21004KT 10SM CLR 24/10 A3002 RMK AO2 SLP102 T02440100 10278 20239 58004

时间: 18:30 (00:30 UTC)


TAF: 丢失

超过4000个机场的气象观测和天气预报(METAR&TAF报告)。

可查询的气象台以黄色和红色小点在地图上表示。

将鼠标移到小点上方,可查看气象台名称。

然后点击查看天气观测和预报。

如需切换地图:点击带黑十字的绿色按钮放大地图;点击带横线的绿色按钮缩小地图;或者点击绿色箭头查看邻近地区的地图。


METAR-TAF: